createdAt,value
2022-07-29T00:04:14.125Z,13.23
2022-07-29T00:09:17.590Z,13.16
2022-07-29T00:14:20.880Z,13.06
2022-07-29T00:19:24.216Z,12.92
2022-07-29T00:24:28.778Z,12.84
2022-07-29T00:29:34.182Z,12.80
2022-07-29T00:34:56.659Z,12.71
2022-07-29T00:40:00.072Z,12.70
2022-07-29T00:45:03.856Z,12.73
2022-07-29T00:50:09.791Z,12.64
2022-07-29T00:55:16.058Z,12.60
2022-07-29T01:00:23.240Z,12.62
2022-07-29T01:05:48.458Z,12.65
2022-07-29T01:10:53.727Z,12.61
2022-07-29T01:16:04.873Z,12.53
2022-07-29T01:21:52.586Z,12.40
2022-07-29T01:27:10.179Z,12.24
2022-07-29T01:32:27.982Z,12.07
2022-07-29T01:37:51.675Z,11.97
2022-07-29T01:42:58.743Z,11.88
2022-07-29T01:48:08.097Z,11.77
2022-07-29T01:53:14.224Z,11.71
2022-07-29T01:58:20.574Z,11.64
2022-07-29T02:03:24.962Z,11.56
2022-07-29T02:08:30.607Z,11.46
2022-07-29T02:13:36.972Z,11.43
2022-07-29T02:18:43.246Z,11.34
2022-07-29T02:23:51.355Z,11.23
2022-07-29T02:28:58.683Z,11.14
2022-07-29T02:34:04.942Z,11.18
2022-07-29T02:39:10.821Z,11.26
2022-07-29T02:44:23.051Z,11.30
2022-07-29T02:49:40.229Z,11.40
2022-07-29T02:54:48.665Z,11.50
2022-07-29T02:59:55.877Z,11.55
2022-07-29T03:05:01.088Z,11.56
2022-07-29T03:10:07.696Z,11.58
2022-07-29T03:15:17.622Z,11.61
2022-07-29T03:20:22.050Z,11.71
2022-07-29T03:25:28.516Z,11.84
2022-07-29T03:30:32.188Z,12.00
2022-07-29T03:35:35.458Z,12.15
2022-07-29T03:40:45.088Z,12.36
2022-07-29T03:45:54.742Z,12.64
2022-07-29T03:50:58.123Z,12.84
2022-07-29T03:56:03.780Z,13.18
2022-07-29T04:01:07.474Z,13.75
2022-07-29T04:06:10.663Z,14.34
2022-07-29T04:11:14.155Z,14.83
2022-07-29T04:16:17.461Z,15.31
2022-07-29T04:21:20.854Z,16.10
2022-07-29T04:26:24.402Z,17.65
2022-07-29T04:31:27.881Z,19.73
2022-07-29T04:36:31.205Z,21.44
2022-07-29T04:41:34.857Z,22.83
2022-07-29T04:46:38.507Z,24.11
2022-07-29T04:51:41.698Z,25.23
2022-07-29T04:56:45.298Z,26.25
2022-07-29T05:01:48.613Z,27.13
2022-07-29T05:06:51.893Z,28.08
2022-07-29T05:11:55.144Z,28.92
2022-07-29T05:16:58.411Z,29.40
2022-07-29T05:22:01.733Z,29.96
2022-07-29T05:27:05.138Z,30.48
2022-07-29T05:32:08.732Z,31.00
2022-07-29T05:37:12.243Z,31.23
2022-07-29T05:42:15.664Z,31.51
2022-07-29T05:47:19.093Z,31.50
2022-07-29T05:52:22.978Z,31.48
2022-07-29T05:57:26.700Z,31.57
2022-07-29T06:02:29.938Z,31.20
2022-07-29T06:07:33.951Z,30.84
2022-07-29T06:12:39.751Z,31.14
2022-07-29T06:18:00.095Z,31.59
2022-07-29T06:23:05.823Z,31.52
2022-07-29T06:28:09.114Z,30.80
2022-07-29T06:33:18.068Z,30.29
2022-07-29T06:38:30.747Z,29.90
2022-07-29T06:43:50.152Z,29.55
2022-07-29T06:48:55.531Z,29.12
2022-07-29T06:54:02.243Z,29.06
2022-07-29T06:59:16.842Z,29.13
2022-07-29T07:04:20.811Z,29.08
2022-07-29T07:09:24.736Z,29.21
2022-07-29T07:14:43.771Z,29.39
2022-07-29T07:19:47.030Z,29.77
2022-07-29T07:24:50.278Z,30.28
2022-07-29T07:29:53.552Z,30.67
2022-07-29T07:34:58.227Z,30.89
2022-07-29T07:40:03.336Z,30.99
2022-07-29T07:45:16.609Z,30.63
2022-07-29T07:50:20.055Z,30.90
2022-07-29T07:55:23.413Z,31.24
2022-07-29T08:00:26.756Z,31.02
2022-07-29T08:05:30.039Z,30.97
2022-07-29T08:10:52.355Z,30.67
2022-07-29T08:15:59.286Z,30.90
2022-07-29T08:21:02.843Z,31.49
2022-07-29T08:26:11.552Z,31.69
2022-07-29T08:31:15.712Z,31.61
2022-07-29T08:36:19.325Z,31.51
2022-07-29T08:41:23.247Z,31.56
2022-07-29T08:46:26.938Z,31.80
2022-07-29T08:51:33.080Z,31.82
2022-07-29T08:56:36.903Z,31.43
2022-07-29T09:01:42.520Z,31.35
2022-07-29T09:06:52.760Z,31.40
2022-07-29T09:11:56.384Z,31.61
2022-07-29T09:17:01.324Z,31.83
2022-07-29T09:22:07.218Z,31.98
2022-07-29T09:27:22.490Z,31.78
2022-07-29T09:32:26.110Z,31.69
2022-07-29T09:37:30.426Z,31.63
2022-07-29T09:42:35.128Z,31.03
2022-07-29T09:47:51.907Z,30.67
2022-07-29T09:52:55.149Z,29.81
2022-07-29T09:58:18.836Z,28.32
2022-07-29T10:03:54.103Z,26.90
2022-07-29T10:09:11.859Z,26.50
2022-07-29T10:14:16.479Z,26.43
2022-07-29T10:19:20.069Z,25.83
2022-07-29T10:24:23.446Z,25.72
2022-07-29T10:29:28.107Z,26.10
2022-07-29T10:35:04.229Z,26.21
2022-07-29T10:40:48.493Z,25.57
2022-07-29T10:45:58.677Z,24.82
2022-07-29T10:51:03.914Z,24.44
2022-07-29T10:56:32.380Z,23.98
2022-07-29T11:01:37.034Z,24.10
2022-07-29T11:06:59.823Z,24.60
2022-07-29T11:12:39.764Z,25.21
2022-07-29T11:17:55.049Z,25.29
2022-07-29T11:23:26.735Z,25.04
2022-07-29T11:28:31.419Z,24.89
2022-07-29T11:33:55.842Z,25.00
2022-07-29T11:39:37.079Z,25.21
2022-07-29T11:44:58.556Z,25.27
2022-07-29T11:50:11.209Z,25.23
2022-07-29T11:55:17.345Z,25.21
2022-07-29T12:00:34.856Z,24.98
2022-07-29T12:05:48.145Z,24.62
2022-07-29T12:10:52.904Z,24.53
2022-07-29T12:16:00.086Z,24.60
2022-07-29T12:21:06.857Z,24.64
2022-07-29T12:26:10.843Z,24.61
2022-07-29T12:31:43.848Z,24.68
2022-07-29T12:36:39.925Z,24.77
2022-07-29T12:41:43.725Z,24.99
2022-07-29T12:46:49.820Z,25.32
2022-07-29T12:51:53.083Z,25.71
2022-07-29T12:57:01.700Z,25.73
2022-07-29T13:02:05.837Z,25.72
2022-07-29T13:07:10.471Z,25.90
2022-07-29T13:12:15.502Z,25.88
2022-07-29T13:17:24.164Z,25.57
2022-07-29T13:22:27.842Z,25.42
2022-07-29T13:27:33.838Z,25.47
2022-07-29T13:32:39.193Z,25.53
2022-07-29T13:37:42.702Z,25.42
2022-07-29T13:42:46.641Z,25.33
2022-07-29T13:47:50.641Z,25.31
2022-07-29T13:52:54.429Z,25.16
2022-07-29T13:57:58.043Z,24.99
2022-07-29T14:03:01.752Z,25.01
2022-07-29T14:08:05.514Z,24.88
2022-07-29T14:13:24.579Z,24.67
2022-07-29T14:18:29.237Z,24.61
2022-07-29T14:23:32.613Z,24.44
2022-07-29T14:28:39.011Z,24.37
2022-07-29T14:33:46.249Z,24.44
2022-07-29T14:38:54.119Z,24.63
2022-07-29T14:43:57.624Z,24.85
2022-07-29T14:49:04.070Z,24.91
2022-07-29T14:54:10.818Z,24.80
2022-07-29T14:59:16.701Z,24.69
2022-07-29T15:04:20.263Z,24.43
2022-07-29T15:09:25.537Z,24.10
2022-07-29T15:14:29.200Z,23.83
2022-07-29T15:19:32.863Z,23.73
2022-07-29T15:24:36.413Z,23.54
2022-07-29T15:29:40.495Z,23.28
2022-07-29T15:34:46.486Z,23.04
2022-07-29T15:39:55.024Z,22.90
2022-07-29T15:45:10.933Z,22.83
2022-07-29T15:50:20.468Z,22.86
2022-07-29T15:55:24.659Z,22.94
2022-07-29T16:00:28.652Z,22.98
2022-07-29T16:05:32.881Z,22.97
2022-07-29T16:10:39.368Z,22.94
2022-07-29T16:16:01.997Z,22.91
2022-07-29T16:21:07.783Z,22.88
2022-07-29T16:26:14.378Z,22.85
2022-07-29T16:31:18.893Z,22.82
2022-07-29T16:36:22.311Z,22.70
2022-07-29T16:41:29.852Z,22.60
2022-07-29T16:46:37.863Z,22.52
2022-07-29T16:51:44.525Z,22.38
2022-07-29T16:56:47.939Z,22.26
2022-07-29T17:01:51.235Z,22.16
2022-07-29T17:06:57.595Z,22.07
2022-07-29T17:12:01.368Z,22.03
2022-07-29T17:17:05.729Z,22.02
2022-07-29T17:22:21.911Z,21.98
2022-07-29T17:27:26.970Z,21.95
2022-07-29T17:32:36.973Z,21.90
2022-07-29T17:37:40.425Z,21.81
2022-07-29T17:42:43.983Z,21.71
2022-07-29T17:47:47.371Z,21.60
2022-07-29T17:52:50.806Z,21.50
2022-07-29T17:57:57.192Z,21.37
2022-07-29T18:03:03.545Z,21.22
2022-07-29T18:08:10.291Z,21.10
2022-07-29T18:13:14.110Z,21.00
2022-07-29T18:18:19.484Z,20.90
2022-07-29T18:23:22.851Z,20.77
2022-07-29T18:28:26.100Z,20.64
2022-07-29T18:33:29.810Z,20.50
2022-07-29T18:38:35.743Z,20.35
2022-07-29T18:43:40.410Z,20.22
2022-07-29T18:48:44.943Z,20.05
2022-07-29T18:53:52.813Z,19.88
2022-07-29T18:58:56.779Z,19.73
2022-07-29T19:04:00.816Z,19.56
2022-07-29T19:09:04.780Z,19.34
2022-07-29T19:14:08.410Z,19.15
2022-07-29T19:19:12.195Z,18.93
2022-07-29T19:24:15.876Z,18.71
2022-07-29T19:29:19.578Z,18.53
2022-07-29T19:34:22.806Z,18.41
2022-07-29T19:39:34.705Z,18.27
2022-07-29T19:44:39.074Z,18.14
2022-07-29T19:49:42.587Z,-69.58
2022-07-29T19:54:45.780Z,-128.00
2022-07-29T19:59:49.025Z,-128.00
2022-07-29T20:04:52.928Z,-128.00
2022-07-29T20:09:56.588Z,-128.00
2022-07-29T20:15:00.133Z,-128.00
2022-07-29T20:20:05.020Z,-128.00
2022-07-29T20:25:12.246Z,-128.00
2022-07-29T20:30:16.779Z,-128.00
2022-07-29T20:35:24.710Z,-128.00
2022-07-29T20:40:30.007Z,-128.00
2022-07-29T20:45:34.621Z,-128.00
2022-07-29T20:50:37.788Z,-128.00
2022-07-29T20:55:41.197Z,-128.00
2022-07-29T21:00:44.460Z,-128.00
2022-07-29T21:05:50.815Z,-128.00
2022-07-29T21:10:54.304Z,-128.00
2022-07-29T21:16:04.307Z,-128.00
2022-07-29T21:21:10.291Z,-128.00
2022-07-29T21:26:14.066Z,-128.00
2022-07-29T21:31:18.745Z,-128.00
2022-07-29T21:36:47.251Z,-128.00
2022-07-29T21:41:46.456Z,-128.00
2022-07-29T21:46:50.124Z,-128.00
2022-07-29T21:51:53.310Z,-128.00
2022-07-29T21:56:56.699Z,-128.00
2022-07-29T22:02:01.222Z,-128.00
2022-07-29T22:07:05.168Z,-128.00
2022-07-29T22:12:08.482Z,-128.00
2022-07-29T22:17:11.772Z,-128.00
2022-07-29T22:22:15.171Z,-128.00
2022-07-29T22:27:18.500Z,-128.00
2022-07-29T22:32:21.679Z,-128.00
2022-07-29T22:37:24.995Z,-128.00
2022-07-29T22:42:28.276Z,-128.00
2022-07-29T22:47:38.992Z,-128.00
2022-07-29T22:52:50.062Z,-128.00
2022-07-29T22:57:53.291Z,-128.00
2022-07-29T23:02:56.581Z,-128.00
2022-07-29T23:08:00.160Z,-128.00
2022-07-29T23:13:03.405Z,-128.00
2022-07-29T23:18:08.148Z,-128.00
2022-07-29T23:23:11.748Z,-128.00
2022-07-29T23:28:14.998Z,-128.00
2022-07-29T23:33:19.952Z,-128.00
2022-07-29T23:38:26.307Z,-128.00
2022-07-29T23:43:29.587Z,-128.00
2022-07-29T23:48:32.793Z,-128.00
2022-07-29T23:53:38.116Z,-128.00
2022-07-29T23:58:56.838Z,-128.00
